Rorichmoor — V2BV7 — position and weather

sailwx.info

Track history (hours):
 
Tides and Currents Weather Stations Pressure Air Temp Water Temp Dewpoint Dewpoint Depression Visibility Wind Speed Wind Dir Waves Ship Positions

Rorichmoor

Last reported at 2015-Apr-22 01:11 UTC. Time now 2015-Apr-22 01:38 UTC.
Position N 42°38' E 005°28'.

Length 80 m; draft 4.5 m.

Type: Cargo ship. MMSI: 304938000.

Date/timePositionNaut miles runAvg speedWind from/ knotsBaromVisibWave heightAir tempDewpointWater temp
2015-Apr-22 01:11N 42°38' E 005°28'51 9.1
2015-Apr-21 19:33N 43°23' E 004°56'7 4.9
2015-Apr-21 18:05N 43°24' E 004°46'5 8.5
2015-Apr-21 17:33N 43°29' E 004°45'8 0.3
2015-Apr-20 16:32N 43°24' E 004°53'18 8.0
2015-Apr-20 14:18N 43°06' E 004°57'1210.9
2015-Apr-20 13:14N 42°57' E 004°47'9 9.1
2015-Apr-20 12:13N 42°49' E 004°39'16 9.0
2015-Apr-20 10:29N 42°37' E 004°26'10 9.0
2015-Apr-20 09:24N 42°29' E 004°18'7 8.4
2015-Apr-20 08:33N 42°24' E 004°12'12 9.0
2015-Apr-20 07:15N 42°15' E 004°03'8 9.6
2015-Apr-20 06:25N 42°08' E 003°56'66 8.4
2015-Apr-19 22:33N 41°16' E 003°02'13 9.6
2015-Apr-19 21:12N 41°06' E 002°52'26 9.6
2015-Apr-19 18:32N 40°45' E 002°31'10 9.0
2015-Apr-19 17:25N 40°37' E 002°23'9 9.0
2015-Apr-19 16:26N 40°30' E 002°16'8 9.2
2015-Apr-19 15:32N 40°24' E 002°09'9 9.3
2015-Apr-19 14:33N 40°16' E 002°02'9 9.3
2015-Apr-19 13:33N 40°09' E 001°54'9 9.2
2015-Apr-19 12:33N 40°02' E 001°47'9 8.9
2015-Apr-19 11:31N 39°55' E 001°40'139 9.7
2015-Apr-18 21:12N 38°02' W 000°06'6 9.7
2015-Apr-18 20:33N 37°57' W 000°10'10 9.8
2015-Apr-18 19:33N 37°49' W 000°17'1010.0
2015-Apr-18 18:33N 37°41' W 000°24'1010.2
2015-Apr-18 17:33N 37°32' W 000°31'1110.0
2015-Apr-18 16:30N 37°25' W 000°41'1010.1
2015-Apr-18 15:28N 37°19' W 000°51'227 9.4
2015-Apr-17 15:27N 35°59' W 005°15'  
2015-Apr-13 12:31N 36°00' W 005°22'229 9.5
2015-Apr-12 12:21N 37°20' W 000°55'8 9.6
2015-Apr-12 11:33N 37°25' W 000°48'13 9.9
2015-Apr-12 10:16N 37°33' W 000°36'  
Track history (hours):
 
Tides and Currents Weather Stations Pressure Air Temp Water Temp Dewpoint Dewpoint Depression Visibility Wind Speed Wind Dir Waves Ship Positions

Rorichmoor

Last reported at 2015-Apr-22 01:11 UTC. Time now 2015-Apr-22 01:38 UTC.
Position N 42°38' E 005°28'.

Length 80 m; draft 4.5 m.

Type: Cargo ship. MMSI: 304938000.

Date/timePositionNaut miles runAvg speedWind from/ knotsBaromVisibWave heightAir tempDewpointWater temp
2015-Apr-22 01:11N 42°38' E 005°28'51 9.1
2015-Apr-21 19:33N 43°23' E 004°56'7 4.9
2015-Apr-21 18:05N 43°24' E 004°46'5 8.5
2015-Apr-21 17:33N 43°29' E 004°45'8 0.3
2015-Apr-20 16:32N 43°24' E 004°53'18 8.0
2015-Apr-20 14:18N 43°06' E 004°57'1210.9
2015-Apr-20 13:14N 42°57' E 004°47'9 9.1
2015-Apr-20 12:13N 42°49' E 004°39'16 9.0
2015-Apr-20 10:29N 42°37' E 004°26'10 9.0
2015-Apr-20 09:24N 42°29' E 004°18'7 8.4
2015-Apr-20 08:33N 42°24' E 004°12'12 9.0
2015-Apr-20 07:15N 42°15' E 004°03'8 9.6
2015-Apr-20 06:25N 42°08' E 003°56'66 8.4
2015-Apr-19 22:33N 41°16' E 003°02'13 9.6
2015-Apr-19 21:12N 41°06' E 002°52'26 9.6
2015-Apr-19 18:32N 40°45' E 002°31'10 9.0
2015-Apr-19 17:25N 40°37' E 002°23'9 9.0
2015-Apr-19 16:26N 40°30' E 002°16'8 9.2
2015-Apr-19 15:32N 40°24' E 002°09'9 9.3
2015-Apr-19 14:33N 40°16' E 002°02'9 9.3
2015-Apr-19 13:33N 40°09' E 001°54'9 9.2
2015-Apr-19 12:33N 40°02' E 001°47'9 8.9
2015-Apr-19 11:31N 39°55' E 001°40'139 9.7
2015-Apr-18 21:12N 38°02' W 000°06'6 9.7
2015-Apr-18 20:33N 37°57' W 000°10'10 9.8
2015-Apr-18 19:33N 37°49' W 000°17'1010.0
2015-Apr-18 18:33N 37°41' W 000°24'1010.2
2015-Apr-18 17:33N 37°32' W 000°31'1110.0
2015-Apr-18 16:30N 37°25' W 000°41'1010.1
2015-Apr-18 15:28N 37°19' W 000°51'227 9.4
2015-Apr-17 15:27N 35°59' W 005°15'  
2015-Apr-13 12:31N 36°00' W 005°22'229 9.5
2015-Apr-12 12:21N 37°20' W 000°55'8 9.6
2015-Apr-12 11:33N 37°25' W 000°48'13 9.9
2015-Apr-12 10:16N 37°33' W 000°36'  

Dump ship's entire track history